4XCWZ LLHZ-LLHZ

Flight info

Callsign 4XCWZ
Flight time 0h 7m
Altitude 800
Route CIRCUIT
Aircraft C152/L-V/N

Departure

Time 2026-04-15 17:10
Airport Herzliya Airport (LLHZ)

Arrival

Time 2026-04-15 17:17
Airport Herzliya Airport (LLHZ)
Time Latitude Longitude Altitude Speed Heading
2026-04-15 17:03 32.17912 34.83657 110 ft 0 kts 182°
2026-04-15 17:04 32.17905 34.83662 111 ft 2 kts 113°
2026-04-15 17:04 32.17922 34.83680 112 ft 0 kts 60°
2026-04-15 17:05 32.17905 34.83751 115 ft 12 kts 107°
2026-04-15 17:05 32.17888 34.83828 117 ft 8 kts 99°
2026-04-15 17:05 32.17906 34.83850 115 ft 5 kts 341°
2026-04-15 17:05 32.17963 34.83681 111 ft 49 kts 288°
2026-04-15 17:06 32.18114 34.83152 148 ft 76 kts 283°
2026-04-15 17:06 32.18270 34.82626 406 ft 52 kts 323°
2026-04-15 17:06 32.18717 34.82672 470 ft 75 kts 19°
2026-04-15 17:06 32.18916 34.83126 645 ft 76 kts 86°
2026-04-15 17:07 32.18832 34.83796 654 ft 87 kts 86°
2026-04-15 17:07 32.18744 34.84534 651 ft 95 kts 100°
2026-04-15 17:07 32.18580 34.85301 697 ft 92 kts 129°
2026-04-15 17:07 32.17932 34.85258 721 ft 107 kts 196°
2026-04-15 17:08 32.17587 34.84823 689 ft 74 kts 301°
2026-04-15 17:08 32.17774 34.84261 387 ft 72 kts 284°
2026-04-15 17:08 32.17946 34.83739 119 ft 60 kts 290°
2026-04-15 17:08 32.18077 34.83254 204 ft 63 kts 287°
2026-04-15 17:09 32.18213 34.82820 382 ft 62 kts 297°
2026-04-15 17:09 32.18559 34.82590 512 ft 73 kts
2026-04-15 17:09 32.18972 34.82868 696 ft 67 kts 63°
2026-04-15 17:09 32.18981 34.83485 714 ft 85 kts 90°
2026-04-15 17:10 32.18872 34.84182 706 ft 92 kts 96°
2026-04-15 17:10 32.18701 34.84929 734 ft 95 kts 101°
2026-04-15 17:10 32.18252 34.85362 820 ft 98 kts 184°
2026-04-15 17:10 32.17641 34.85118 725 ft 70 kts 244°
2026-04-15 17:11 32.17676 34.84621 471 ft 63 kts 297°
2026-04-15 17:11 32.17831 34.84146 231 ft 60 kts 288°
2026-04-15 17:11 32.17962 34.83689 113 ft 55 kts 288°
2026-04-15 17:12 32.18358 34.82615 335 ft 75 kts 337°
2026-04-15 17:12 32.18851 34.82714 506 ft 65 kts 30°
2026-04-15 17:12 32.19004 34.83180 674 ft 67 kts 81°
2026-04-15 17:12 32.18882 34.83746 739 ft 78 kts 104°
2026-04-15 17:13 32.18755 34.84403 715 ft 85 kts 96°
2026-04-15 17:13 32.18557 34.85074 702 ft 95 kts 122°
2026-04-15 17:13 32.17917 34.85277 623 ft 98 kts 191°
2026-04-15 17:13 32.17600 34.84868 566 ft 61 kts 280°
2026-04-15 17:14 32.17767 34.84387 356 ft 62 kts 285°
2026-04-15 17:14 32.17892 34.83906 171 ft 61 kts 293°
2026-04-15 17:14 32.18031 34.83446 110 ft 66 kts 288°
2026-04-15 17:14 32.18185 34.82913 254 ft 66 kts 291°
2026-04-15 17:15 32.18461 34.82535 343 ft 72 kts
2026-04-15 17:15 32.18911 34.82672 525 ft 63 kts 32°
2026-04-15 17:15 32.19048 34.83188 597 ft 73 kts 87°
2026-04-15 17:15 32.18966 34.83831 638 ft 85 kts 102°
2026-04-15 17:16 32.18834 34.84531 666 ft 90 kts 100°
2026-04-15 17:16 32.18623 34.85214 697 ft 89 kts 116°
2026-04-15 17:16 32.18005 34.85247 668 ft 106 kts 193°
2026-04-15 17:16 32.17644 34.84832 618 ft 66 kts 277°
2026-04-15 17:17 32.17782 34.84306 391 ft 63 kts 296°
2026-04-15 17:17 32.17921 34.83831 137 ft 61 kts 294°
2026-04-15 17:17 32.18020 34.83490 104 ft 32 kts 287°